Accueil
METAR-TAF:

METAR-TAF

Aéroports :

Aéroport international de Tân Sơn Nhất

Hô-Chi-Minh-Ville, Viêtnam

latitude: 10-49N, longitude: 106-40E, altitude: 19 m

Observation

Le bulletin a été fait il y a 37 minutes, à 16:30 UTC
Vent 2 kt de direction variable
Température 26°C
Humidité 84%
Pression 1011 hPa
Visibilité 10 km ou plus
Quelques nuages à une hauteur de 1700 ft
Nuages épars à une hauteur de 5000 ft

METAR: VVTS 211630Z VRB02KT 9999 FEW017 SCT050 26/23 Q1011 NOSIG

Heure: 00:07 (17:07 UTC)

Prévision

Le bulletin a été fait il y a 6 heures et 7 minutes, à 11:00 UTC
Prévision valable du 21 à 12 UTC au 22 à 18 UTC
Vent 2 kt de direction variable
Visibilité 10 km ou plus
Nuages épars à une hauteur de 1700 ft
Evoluant progressivement
du 22 à 01 UTC au 22 à 02 UTC
Vent 6 kt de ouest/nord-ouest

TAF: VVTS 211100Z 2112/2218 VRB02KT 9999 SCT017 BECMG 2201/2202 30006KT

Observations et prévisions météorologiques de plus de 4000 aéroports (messages METAR et TAF).

Les stations disponibles sont représentées par des disques jaunes et rouges sur la carte.

Passer la souris dessus pour voir le nom de la station.

Cliquer dessus pour voir les observations et prévisions météorologiques.

Pour changer de carte: cliquez sur les boutons verts avec une croix noire pour zoomer, sur le bouton vert avec un tiret pour effectuer un zoom arrière, ou sur les flèches vertes pour les cartes adjacentes.


METAR-TAF: